Accomac, Virginia
Current Conditions -  °F | °C
As of 3:55 PM on Tuesday 25 Nov 2014 (Local Time) from KMFV Reporting Station
Overcast Overcast  
Wind Chill: 54°   Ceiling: 3200
Heat Index: 54°   Visibility: 10mi
Dew Point: 39°   Wind: 6mph
Humidity: 58%   Direction: 360°N
Pressure: 30.06"   Gusts: NA
Location:  37.72°N, 75.67°W
Report Text: KMFV 252055Z AUTO 36005KT 10SM OVC032 12/04 A3006 RMK AO2
Loading
Personal Weather Stations






























Interactive Weather Map New forecast layout! Learn more

10-Day Weather Forecast

Advertisements
Track Severe Weather on mobile